createdAt,value
2023-03-27T00:00:18.764Z,82.28
2023-03-27T00:01:18.737Z,82.21
2023-03-27T00:02:18.890Z,82.32
2023-03-27T00:03:18.872Z,82.32
2023-03-27T00:04:18.868Z,82.32
2023-03-27T00:05:18.688Z,82.32
2023-03-27T00:06:18.674Z,82.11
2023-03-27T00:07:18.689Z,82.21
2023-03-27T00:08:18.702Z,82.42
2023-03-27T00:09:18.642Z,82.01
2023-03-27T00:10:18.633Z,82.53
2023-03-27T00:11:18.634Z,82.63
2023-03-27T00:12:18.613Z,82.73
2023-03-27T00:13:18.599Z,82.63
2023-03-27T00:14:18.615Z,82.94
2023-03-27T00:15:18.577Z,82.94
2023-03-27T00:16:18.627Z,82.84
2023-03-27T00:17:18.553Z,82.94
2023-03-27T00:18:18.563Z,82.94
2023-03-27T00:19:18.535Z,82.84
2023-03-27T00:20:18.538Z,83.46
2023-03-27T00:21:18.515Z,83.67
2023-03-27T00:22:18.505Z,83.56
2023-03-27T00:23:18.488Z,83.67
2023-03-27T00:24:18.487Z,83.36
2023-03-27T00:25:18.469Z,83.77
2023-03-27T00:26:18.454Z,83.15
2023-03-27T00:27:18.465Z,83.46
2023-03-27T00:28:18.429Z,82.73
2023-03-27T00:29:18.440Z,82.94
2023-03-27T00:30:18.413Z,83.25
2023-03-27T00:31:18.470Z,83.04
2023-03-27T00:32:18.387Z,82.73
2023-03-27T00:33:18.402Z,82.94
2023-03-27T00:34:18.424Z,82.84
2023-03-27T00:35:18.405Z,82.94
2023-03-27T00:36:18.341Z,82.94
2023-03-27T00:37:18.332Z,83.77
2023-03-27T00:38:18.319Z,82.94
2023-03-27T00:39:18.311Z,82.94
2023-03-27T00:40:18.308Z,82.98
2023-03-27T00:41:18.320Z,83.46
2023-03-27T00:42:18.275Z,83.50
2023-03-27T00:43:18.270Z,83.39
2023-03-27T00:44:18.261Z,84.19
2023-03-27T00:45:18.270Z,84.19
2023-03-27T00:46:18.258Z,84.22
2023-03-27T00:47:18.234Z,84.22
2023-03-27T00:48:18.211Z,83.39
2023-03-27T00:49:18.200Z,83.67
2023-03-27T00:50:18.227Z,83.50
2023-03-27T00:51:18.178Z,83.67
2023-03-27T00:52:18.166Z,83.87
2023-03-27T00:53:18.171Z,83.91
2023-03-27T00:54:18.144Z,83.81
2023-03-27T00:55:18.143Z,83.15
2023-03-27T00:56:18.164Z,82.73
2023-03-27T00:57:18.129Z,83.46
2023-03-27T00:58:18.102Z,83.67
2023-03-27T00:59:18.089Z,83.39
2023-03-27T01:00:18.081Z,83.36
2023-03-27T01:01:18.128Z,83.39
2023-03-27T01:02:18.141Z,83.70
2023-03-27T01:03:18.202Z,83.50
2023-03-27T01:04:18.030Z,83.50
2023-03-27T01:05:18.116Z,82.98
2023-03-27T01:06:18.039Z,82.98
2023-03-27T01:07:18.010Z,83.91
2023-03-27T01:08:17.999Z,83.50
2023-03-27T01:09:20.341Z,83.43
2023-03-27T01:10:17.965Z,83.70
2023-03-27T01:11:17.956Z,83.60
2023-03-27T01:12:17.947Z,83.64
2023-03-27T01:13:17.933Z,83.64
2023-03-27T01:14:17.918Z,83.50
2023-03-27T01:15:17.924Z,84.05
2023-03-27T01:16:17.938Z,84.16
2023-03-27T01:17:17.907Z,84.16
2023-03-27T01:18:17.877Z,83.74
2023-03-27T01:19:17.864Z,84.16
2023-03-27T01:20:17.857Z,84.05
2023-03-27T01:21:17.855Z,84.16
2023-03-27T01:22:17.858Z,83.84
2023-03-27T01:23:36.223Z,83.84
2023-03-27T01:24:18.813Z,84.27
2023-03-27T01:25:17.798Z,84.27
2023-03-27T01:26:17.793Z,84.05
2023-03-27T01:27:18.786Z,84.27
2023-03-27T01:28:24.889Z,84.47
2023-03-27T01:29:17.747Z,84.72
2023-03-27T01:30:17.741Z,84.99
2023-03-27T01:31:17.764Z,84.78
2023-03-27T01:32:17.742Z,84.58
2023-03-27T01:33:17.721Z,84.61
2023-03-27T01:34:17.716Z,84.68
2023-03-27T01:35:17.841Z,84.51
2023-03-27T01:36:17.680Z,84.30
2023-03-27T01:37:17.668Z,83.89
2023-03-27T01:38:17.697Z,84.16
2023-03-27T01:39:17.682Z,84.41
2023-03-27T01:40:17.633Z,84.72
2023-03-27T01:41:17.634Z,84.61
2023-03-27T01:42:17.634Z,84.72
2023-03-27T01:43:17.596Z,84.51
2023-03-27T01:44:17.592Z,84.82
2023-03-27T01:45:17.578Z,84.82
2023-03-27T01:46:17.611Z,84.51
2023-03-27T01:47:17.561Z,84.82
2023-03-27T01:48:17.563Z,84.92
2023-03-27T01:49:17.539Z,84.72
2023-03-27T01:50:17.526Z,84.41
2023-03-27T01:51:17.519Z,84.51
2023-03-27T01:52:17.517Z,84.82
2023-03-27T01:53:17.503Z,84.75
2023-03-27T01:54:17.519Z,84.92
2023-03-27T01:55:17.471Z,85.28
2023-03-27T01:56:17.455Z,84.61
2023-03-27T01:57:17.484Z,84.72
2023-03-27T01:58:17.439Z,85.06
2023-03-27T01:59:17.428Z,85.59
2023-03-27T02:00:19.474Z,85.28
2023-03-27T02:01:17.442Z,85.06
2023-03-27T02:02:17.408Z,84.96
2023-03-27T02:03:17.379Z,84.65
2023-03-27T02:04:17.378Z,85.69
2023-03-27T02:05:17.392Z,85.17
2023-03-27T02:06:17.344Z,85.59
2023-03-27T02:07:17.337Z,85.38
2023-03-27T02:08:17.332Z,85.06
2023-03-27T02:09:17.335Z,85.90
2023-03-27T02:10:17.328Z,85.90
2023-03-27T02:11:17.296Z,85.80
2023-03-27T02:12:17.287Z,85.90
2023-03-27T02:13:17.285Z,85.69
2023-03-27T02:14:17.262Z,85.90
2023-03-27T02:15:23.723Z,85.69
2023-03-27T02:16:18.277Z,85.69
2023-03-27T02:17:17.223Z,85.69
2023-03-27T02:18:17.230Z,85.69
2023-03-27T02:19:17.199Z,85.59
2023-03-27T02:20:17.201Z,85.69
2023-03-27T02:21:17.177Z,85.80
2023-03-27T02:22:17.180Z,85.80
2023-03-27T02:23:17.192Z,85.80
2023-03-27T02:24:17.149Z,85.90
2023-03-27T02:25:17.141Z,85.90
2023-03-27T02:26:17.149Z,85.90
2023-03-27T02:27:17.125Z,86.00
2023-03-27T02:28:17.118Z,85.80
2023-03-27T02:29:17.107Z,85.90
2023-03-27T02:30:17.085Z,85.90
2023-03-27T02:31:32.522Z,85.90
2023-03-27T02:32:17.112Z,85.90
2023-03-27T02:33:17.060Z,85.69
2023-03-27T02:34:17.043Z,85.49
2023-03-27T02:35:17.040Z,85.17
2023-03-27T02:36:17.020Z,85.17
2023-03-27T02:37:17.011Z,85.17
2023-03-27T02:38:16.991Z,86.00
2023-03-27T02:39:16.986Z,85.28
2023-03-27T02:40:16.981Z,85.49
2023-03-27T02:41:16.987Z,85.38
2023-03-27T02:42:16.972Z,85.28
2023-03-27T02:43:16.942Z,85.17
2023-03-27T02:44:16.927Z,84.96
2023-03-27T02:45:16.916Z,85.17
2023-03-27T02:46:16.973Z,85.21
2023-03-27T02:47:16.940Z,85.17
2023-03-27T02:48:16.890Z,85.90
2023-03-27T02:49:16.867Z,85.90
2023-03-27T02:50:16.878Z,85.73
2023-03-27T02:51:16.853Z,85.90
2023-03-27T02:52:16.838Z,85.90
2023-03-27T02:53:16.847Z,86.00
2023-03-27T02:54:16.833Z,85.83
2023-03-27T02:55:16.828Z,85.90
2023-03-27T02:56:16.797Z,85.28
2023-03-27T02:57:16.872Z,85.42
2023-03-27T02:58:16.794Z,85.63
2023-03-27T02:59:16.767Z,85.52
2023-03-27T03:00:16.761Z,85.49
2023-03-27T03:01:16.814Z,85.28
2023-03-27T03:02:16.803Z,85.49
2023-03-27T03:03:16.877Z,85.80
2023-03-27T03:04:16.779Z,85.38
2023-03-27T03:05:16.704Z,85.49
2023-03-27T03:06:16.687Z,85.80
2023-03-27T03:07:16.682Z,86.00
2023-03-27T03:08:16.681Z,86.21
2023-03-27T03:09:16.665Z,86.21
2023-03-27T03:10:16.655Z,86.00
2023-03-27T03:11:16.632Z,86.32
2023-03-27T03:12:16.634Z,86.21
2023-03-27T03:13:16.616Z,86.25
2023-03-27T03:14:16.689Z,85.73
2023-03-27T03:15:16.595Z,85.59
2023-03-27T03:16:16.629Z,85.42
2023-03-27T03:17:16.571Z,86.04
2023-03-27T03:18:16.568Z,86.04
2023-03-27T03:19:16.540Z,86.04
2023-03-27T03:20:16.552Z,86.25
2023-03-27T03:21:16.547Z,86.25
2023-03-27T03:22:16.518Z,86.32
2023-03-27T03:23:16.504Z,86.15
2023-03-27T03:24:16.486Z,86.11
2023-03-27T03:25:16.487Z,86.00
2023-03-27T03:26:16.466Z,86.11
2023-03-27T03:27:16.474Z,86.21
2023-03-27T03:28:16.445Z,86.25
2023-03-27T03:29:16.427Z,86.32
2023-03-27T03:30:17.588Z,86.15
2023-03-27T03:31:16.423Z,86.11
2023-03-27T03:32:16.418Z,86.15
2023-03-27T03:33:16.386Z,86.25
2023-03-27T03:34:16.666Z,86.15
2023-03-27T03:35:16.410Z,86.15
2023-03-27T03:36:16.373Z,86.11
2023-03-27T03:37:16.347Z,86.32
2023-03-27T03:38:16.337Z,86.15
2023-03-27T03:39:16.333Z,86.15
2023-03-27T03:40:16.319Z,86.11
2023-03-27T03:41:16.323Z,86.11
2023-03-27T03:42:22.739Z,86.00
2023-03-27T03:43:17.279Z,86.15
2023-03-27T03:44:16.266Z,86.21
2023-03-27T03:45:16.262Z,86.21
2023-03-27T03:46:16.319Z,86.00
2023-03-27T03:47:16.240Z,86.25
2023-03-27T03:48:16.224Z,86.25
2023-03-27T03:49:16.210Z,86.57
2023-03-27T03:50:16.242Z,85.94
2023-03-27T03:51:16.190Z,86.25
2023-03-27T03:52:16.187Z,86.35
2023-03-27T03:53:16.182Z,85.83
2023-03-27T03:54:16.163Z,86.00
2023-03-27T03:55:16.155Z,86.46
2023-03-27T03:56:16.147Z,86.35
2023-03-27T03:57:16.152Z,86.25
2023-03-27T03:58:16.110Z,86.35
2023-03-27T03:59:16.092Z,86.46
2023-03-27T04:00:16.110Z,86.35
2023-03-27T04:01:16.077Z,86.15
2023-03-27T04:02:16.153Z,86.04
2023-03-27T04:03:16.210Z,86.46
2023-03-27T04:04:16.041Z,86.46
2023-03-27T04:05:16.052Z,86.57
2023-03-27T04:06:16.033Z,86.25
2023-03-27T04:07:16.028Z,86.57
2023-03-27T04:08:15.992Z,86.35
2023-03-27T04:09:15.980Z,86.35
2023-03-27T04:10:15.984Z,86.35
2023-03-27T04:11:15.990Z,86.15
2023-03-27T04:12:15.961Z,86.46
2023-03-27T04:13:15.932Z,86.46
2023-03-27T04:14:15.926Z,86.88
2023-03-27T04:15:15.935Z,86.77
2023-03-27T04:16:16.006Z,86.88
2023-03-27T04:17:15.904Z,86.77
2023-03-27T04:18:15.965Z,86.57
2023-03-27T04:19:15.871Z,86.98
2023-03-27T04:20:15.859Z,87.08
2023-03-27T04:21:15.883Z,87.81
2023-03-27T04:22:15.843Z,87.81
2023-03-27T04:23:15.832Z,87.50
2023-03-27T04:24:15.813Z,87.50
2023-03-27T04:25:15.806Z,87.50
2023-03-27T04:26:16.082Z,87.29
2023-03-27T04:27:15.811Z,87.19
2023-03-27T04:28:15.774Z,87.19
2023-03-27T04:29:15.833Z,87.08
2023-03-27T04:30:15.886Z,87.19
2023-03-27T04:31:15.871Z,86.98
2023-03-27T04:32:15.761Z,87.08
2023-03-27T04:33:15.772Z,86.98
2023-03-27T04:34:15.787Z,86.98
2023-03-27T04:35:15.699Z,87.50
2023-03-27T04:36:15.781Z,87.08
2023-03-27T04:37:15.829Z,87.33
2023-03-27T04:38:15.668Z,88.02
2023-03-27T04:39:15.649Z,87.65
2023-03-27T04:40:15.646Z,88.02
2023-03-27T04:41:15.848Z,88.12
2023-03-27T04:42:15.621Z,87.92
2023-03-27T04:43:15.625Z,87.71
2023-03-27T04:44:15.606Z,87.71
2023-03-27T04:45:15.589Z,87.50
2023-03-27T04:46:15.632Z,87.40
2023-03-27T04:47:15.624Z,87.50
2023-03-27T04:48:15.564Z,87.81
2023-03-27T04:49:15.549Z,87.71
2023-03-27T04:50:15.552Z,87.60
2023-03-27T04:51:15.525Z,87.71
2023-03-27T04:52:15.520Z,88.02
2023-03-27T04:53:15.512Z,87.71
2023-03-27T04:54:15.495Z,87.81
2023-03-27T04:55:15.514Z,88.12
2023-03-27T04:56:15.484Z,88.09
2023-03-27T04:57:15.511Z,87.92
2023-03-27T04:58:15.451Z,88.02
2023-03-27T04:59:15.436Z,87.92
2023-03-27T05:00:15.427Z,87.71
2023-03-27T05:01:15.440Z,88.12
2023-03-27T05:02:15.397Z,88.12
2023-03-27T05:03:15.469Z,87.81
2023-03-27T05:04:15.382Z,88.23
2023-03-27T05:05:15.363Z,88.23
2023-03-27T05:06:15.399Z,88.43
2023-03-27T05:07:15.345Z,88.54
2023-03-27T05:08:15.344Z,88.40
2023-03-27T05:09:15.336Z,87.92
2023-03-27T05:10:15.303Z,88.09
2023-03-27T05:11:15.295Z,88.29
2023-03-27T05:12:15.288Z,88.29
2023-03-27T05:13:15.273Z,88.29
2023-03-27T05:14:15.421Z,88.43
2023-03-27T05:15:15.251Z,88.40
2023-03-27T05:16:15.267Z,88.19
2023-03-27T05:17:15.224Z,88.40
2023-03-27T05:18:15.232Z,88.54
2023-03-27T05:19:15.215Z,88.50
2023-03-27T05:20:15.220Z,88.19
2023-03-27T05:21:15.235Z,87.98
2023-03-27T05:22:15.190Z,88.64
2023-03-27T05:23:15.162Z,88.19
2023-03-27T05:24:15.166Z,88.50
2023-03-27T05:25:15.142Z,88.12
2023-03-27T05:26:15.137Z,88.60
2023-03-27T05:27:15.117Z,88.40
2023-03-27T05:28:15.123Z,88.33
2023-03-27T05:29:15.092Z,88.60
2023-03-27T05:30:15.114Z,88.29
2023-03-27T05:31:15.195Z,87.98
2023-03-27T05:32:15.060Z,87.77
2023-03-27T05:33:15.062Z,87.88
2023-03-27T05:34:15.044Z,88.09
2023-03-27T05:35:15.030Z,88.09
2023-03-27T05:36:15.039Z,88.19
2023-03-27T05:37:15.003Z,87.66
2023-03-27T05:38:15.028Z,87.98
2023-03-27T05:39:14.991Z,87.98
2023-03-27T05:40:14.975Z,88.29
2023-03-27T05:41:14.958Z,88.40
2023-03-27T05:42:14.967Z,88.40
2023-03-27T05:43:14.947Z,87.88
2023-03-27T05:44:14.930Z,88.09
2023-03-27T05:45:14.920Z,88.40
2023-03-27T05:46:21.152Z,88.19
2023-03-27T05:47:15.899Z,88.50
2023-03-27T05:48:14.901Z,88.60
2023-03-27T05:49:14.882Z,88.40
2023-03-27T05:50:14.861Z,88.40
2023-03-27T05:51:14.854Z,88.60
2023-03-27T05:52:14.839Z,87.88
2023-03-27T05:53:14.831Z,87.98
2023-03-27T05:54:14.841Z,87.66
2023-03-27T05:55:14.812Z,88.35
2023-03-27T05:56:14.817Z,87.88
2023-03-27T05:57:14.803Z,87.77
2023-03-27T05:58:14.791Z,87.46
2023-03-27T05:59:14.762Z,87.66
2023-03-27T06:00:14.755Z,88.04
2023-03-27T06:01:14.750Z,88.09
2023-03-27T06:02:14.783Z,88.29
2023-03-27T06:03:14.831Z,88.04
2023-03-27T06:04:14.751Z,88.25
2023-03-27T06:05:14.726Z,87.94
2023-03-27T06:06:14.705Z,88.29
2023-03-27T06:07:14.672Z,87.84
2023-03-27T06:08:14.667Z,87.84
2023-03-27T06:09:14.656Z,87.84
2023-03-27T06:10:14.683Z,87.94
2023-03-27T06:11:14.633Z,88.10
2023-03-27T06:12:14.629Z,88.07
2023-03-27T06:13:14.623Z,88.07
2023-03-27T06:14:14.602Z,87.55
2023-03-27T06:15:14.614Z,87.19
2023-03-27T06:16:14.629Z,86.57
2023-03-27T06:17:14.571Z,85.95
2023-03-27T06:18:14.582Z,85.43
2023-03-27T06:19:14.547Z,86.12
2023-03-27T06:20:14.540Z,86.08
2023-03-27T06:21:14.547Z,85.21
2023-03-27T06:22:14.503Z,84.44
2023-03-27T06:23:14.502Z,83.58
2023-03-27T06:24:14.638Z,82.60
2023-03-27T06:25:14.509Z,81.74
2023-03-27T06:26:14.490Z,80.71
2023-03-27T06:27:14.494Z,80.50
2023-03-27T06:28:14.442Z,80.54
2023-03-27T06:29:14.438Z,80.36
2023-03-27T06:30:14.414Z,80.78
2023-03-27T06:31:14.423Z,80.92
2023-03-27T06:32:14.414Z,80.92
2023-03-27T06:33:14.393Z,81.27
2023-03-27T06:34:14.381Z,81.48
2023-03-27T06:35:14.382Z,82.65
2023-03-27T06:36:14.361Z,82.86
2023-03-27T06:37:14.355Z,83.48
2023-03-27T06:38:14.330Z,83.90
2023-03-27T06:39:14.334Z,83.48
2023-03-27T06:40:14.308Z,83.69
2023-03-27T06:41:14.305Z,84.21
2023-03-27T06:42:14.306Z,83.59
2023-03-27T06:43:14.299Z,84.38
2023-03-27T06:44:14.262Z,84.17
2023-03-27T06:45:14.254Z,84.11
2023-03-27T06:46:14.296Z,83.97
2023-03-27T06:47:14.297Z,83.69
2023-03-27T06:48:21.640Z,83.65
2023-03-27T06:49:15.207Z,83.41
2023-03-27T06:50:14.194Z,83.95
2023-03-27T06:51:14.198Z,81.91
2023-03-27T06:52:14.179Z,81.84
2023-03-27T06:53:25.769Z,80.25
2023-03-27T06:54:15.149Z,79.05
2023-03-27T06:55:15.074Z,78.36
2023-03-27T06:56:14.133Z,78.85
2023-03-27T06:57:14.231Z,79.53
2023-03-27T06:58:14.137Z,79.47
2023-03-27T06:59:14.096Z,79.80
2023-03-27T07:00:14.080Z,78.74
2023-03-27T07:01:14.093Z,78.77
2023-03-27T07:02:14.057Z,78.91
2023-03-27T07:03:14.051Z,77.80
2023-03-27T07:04:14.041Z,76.32
2023-03-27T07:05:14.064Z,75.67
2023-03-27T07:06:14.022Z,74.29
2023-03-27T07:07:14.013Z,73.68
2023-03-27T07:08:22.432Z,75.05
2023-03-27T07:09:14.986Z,74.33
2023-03-27T07:10:13.976Z,74.77
2023-03-27T07:11:14.255Z,73.91
2023-03-27T07:12:13.962Z,73.44
2023-03-27T07:13:13.935Z,71.48
2023-03-27T07:14:13.958Z,71.34
2023-03-27T07:15:13.922Z,70.90
2023-03-27T07:16:13.915Z,70.46
2023-03-27T07:17:13.882Z,69.09
2023-03-27T07:18:13.893Z,68.96
2023-03-27T07:19:13.870Z,67.93
2023-03-27T07:20:13.849Z,67.49
2023-03-27T07:21:13.844Z,67.49
2023-03-27T07:22:13.841Z,67.66
2023-03-27T07:23:13.821Z,66.50
2023-03-27T07:24:13.814Z,66.02
2023-03-27T07:25:13.809Z,66.02
2023-03-27T07:26:13.785Z,66.70
2023-03-27T07:27:14.044Z,67.24
2023-03-27T07:28:13.755Z,67.96
2023-03-27T07:29:20.876Z,68.54
2023-03-27T07:30:13.745Z,69.60
2023-03-27T07:31:32.663Z,69.76
2023-03-27T07:33:13.761Z,71.14
2023-03-27T07:34:13.889Z,71.99
2023-03-27T07:35:13.704Z,72.27
2023-03-27T07:36:13.668Z,72.47
2023-03-27T07:37:13.660Z,72.37
2023-03-27T07:38:13.649Z,72.27
2023-03-27T07:39:13.650Z,72.34
2023-03-27T07:40:13.616Z,72.09
2023-03-27T07:41:13.619Z,71.66
2023-03-27T07:42:13.614Z,71.00
2023-03-27T07:43:13.636Z,70.42
2023-03-27T07:44:13.580Z,69.19
2023-03-27T07:45:13.621Z,68.68
2023-03-27T07:46:13.598Z,69.19
2023-03-27T07:47:13.549Z,68.88
2023-03-27T07:48:13.537Z,68.48
2023-03-27T07:49:13.526Z,68.91
2023-03-27T07:50:13.538Z,68.99
2023-03-27T07:51:14.360Z,69.50
2023-03-27T07:52:15.329Z,69.40
2023-03-27T07:53:32.399Z,69.29
2023-03-27T07:54:14.470Z,69.50
2023-03-27T07:55:13.478Z,69.43
2023-03-27T07:56:13.452Z,69.50
2023-03-27T07:57:13.525Z,69.84
2023-03-27T07:58:13.503Z,69.15
2023-03-27T07:59:13.413Z,69.70
2023-03-27T08:00:13.401Z,69.90
2023-03-27T08:01:13.428Z,69.84
2023-03-27T08:02:13.383Z,70.35
2023-03-27T08:03:13.547Z,71.10
2023-03-27T08:04:13.433Z,71.72
2023-03-27T08:05:13.425Z,71.48
2023-03-27T08:06:13.348Z,71.48
2023-03-27T08:07:13.339Z,70.93
2023-03-27T08:08:13.310Z,71.37
2023-03-27T08:09:13.312Z,72.23
2023-03-27T08:10:13.288Z,71.92
2023-03-27T08:11:23.121Z,72.44
2023-03-27T08:12:14.272Z,72.78
2023-03-27T08:13:13.269Z,73.30
2023-03-27T08:14:13.248Z,73.71
2023-03-27T08:15:13.230Z,73.68
2023-03-27T08:16:13.289Z,73.57
2023-03-27T08:17:16.355Z,73.57
2023-03-27T08:18:13.299Z,73.47
2023-03-27T08:19:13.185Z,73.64
2023-03-27T08:20:13.185Z,73.33
2023-03-27T08:21:13.164Z,72.54
2023-03-27T08:22:13.152Z,72.96
2023-03-27T08:23:13.146Z,73.26
2023-03-27T08:24:13.139Z,73.13
2023-03-27T08:25:13.121Z,73.64
2023-03-27T08:26:14.002Z,73.78
2023-03-27T08:27:13.104Z,73.64
2023-03-27T08:28:13.079Z,71.78
2023-03-27T08:29:13.100Z,71.44
2023-03-27T08:30:13.860Z,71.92
2023-03-27T08:31:13.106Z,71.20
2023-03-27T08:32:13.036Z,71.41
2023-03-27T08:33:13.062Z,73.06
2023-03-27T08:34:13.013Z,72.61
2023-03-27T08:35:13.023Z,71.62
2023-03-27T08:36:13.028Z,71.62
2023-03-27T08:37:12.990Z,72.00
2023-03-27T08:38:25.743Z,71.07
2023-03-27T08:39:13.955Z,71.37
2023-03-27T08:40:12.963Z,71.89
2023-03-27T08:41:12.938Z,71.28
2023-03-27T08:42:12.942Z,71.55
2023-03-27T08:43:12.921Z,71.14
2023-03-27T08:44:12.898Z,70.01
2023-03-27T08:45:12.930Z,69.29
2023-03-27T08:46:12.894Z,69.46
2023-03-27T08:47:12.875Z,69.29
2023-03-27T08:48:12.858Z,69.39
2023-03-27T08:49:12.874Z,68.70
2023-03-27T08:50:12.837Z,69.90
2023-03-27T08:51:12.840Z,69.70
2023-03-27T08:52:12.827Z,69.49
2023-03-27T08:53:12.806Z,69.46
2023-03-27T08:54:12.794Z,69.74
2023-03-27T08:55:12.800Z,69.02
2023-03-27T08:56:12.791Z,68.71
2023-03-27T08:57:12.778Z,67.99
2023-03-27T08:58:12.745Z,68.43
2023-03-27T08:59:13.149Z,67.71
2023-03-27T09:00:12.725Z,67.71
2023-03-27T09:01:12.720Z,68.98
2023-03-27T09:02:12.755Z,68.54
2023-03-27T09:03:12.747Z,69.36
2023-03-27T09:04:12.687Z,68.91
2023-03-27T09:05:12.690Z,68.30
2023-03-27T09:06:12.673Z,68.16
2023-03-27T09:07:12.648Z,66.93
2023-03-27T09:08:12.647Z,65.67
2023-03-27T09:09:12.628Z,65.98
2023-03-27T09:10:12.614Z,67.28
2023-03-27T09:11:12.617Z,65.95
2023-03-27T09:12:12.598Z,65.64
2023-03-27T09:13:12.581Z,65.20
2023-03-27T09:14:12.565Z,63.97
2023-03-27T09:15:12.563Z,64.00
2023-03-27T09:16:12.629Z,65.26
2023-03-27T09:17:12.539Z,65.77
2023-03-27T09:18:12.526Z,63.75
2023-03-27T09:19:12.511Z,64.75
2023-03-27T09:20:12.512Z,64.54
2023-03-27T09:21:12.510Z,64.47
2023-03-27T09:22:12.486Z,63.00
2023-03-27T09:23:12.463Z,63.00
2023-03-27T09:24:12.450Z,63.21
2023-03-27T09:25:12.485Z,62.21
2023-03-27T09:26:12.444Z,62.11
2023-03-27T09:27:12.426Z,62.73
2023-03-27T09:28:12.415Z,63.03
2023-03-27T09:29:12.397Z,62.80
2023-03-27T09:30:13.409Z,63.00
2023-03-27T09:31:12.405Z,62.08
2023-03-27T09:32:12.360Z,62.93
2023-03-27T09:33:12.428Z,60.98
2023-03-27T09:34:12.351Z,60.57
2023-03-27T09:35:12.335Z,62.11
2023-03-27T09:36:12.340Z,63.24
2023-03-27T09:37:12.326Z,61.16
2023-03-27T09:38:12.305Z,59.48
2023-03-27T09:39:12.286Z,59.69
2023-03-27T09:40:12.283Z,59.87
2023-03-27T09:41:12.269Z,60.46
2023-03-27T09:42:12.247Z,60.76
2023-03-27T09:43:12.253Z,60.05
2023-03-27T09:44:12.230Z,57.92
2023-03-27T09:45:12.231Z,58.10
2023-03-27T09:46:12.212Z,60.53
2023-03-27T09:47:12.210Z,59.84
2023-03-27T09:48:12.203Z,58.84
2023-03-27T09:49:12.177Z,59.48
2023-03-27T09:50:12.176Z,60.72
2023-03-27T09:51:12.162Z,58.97
2023-03-27T09:52:12.137Z,60.00
2023-03-27T09:53:12.161Z,59.80
2023-03-27T09:54:12.142Z,60.82
2023-03-27T09:55:12.110Z,60.75
2023-03-27T09:56:12.092Z,60.51
2023-03-27T09:57:12.106Z,62.02
2023-03-27T09:58:12.081Z,61.89
2023-03-27T09:59:12.084Z,62.17
2023-03-27T10:00:12.053Z,60.84
2023-03-27T10:01:12.076Z,59.17
2023-03-27T10:02:12.029Z,57.84
2023-03-27T10:03:12.148Z,59.14
2023-03-27T10:04:12.093Z,57.33
2023-03-27T10:05:12.063Z,56.43
2023-03-27T10:06:12.003Z,56.26
2023-03-27T10:07:11.966Z,57.84
2023-03-27T10:08:11.974Z,58.05
2023-03-27T10:09:11.966Z,58.00
2023-03-27T10:10:11.987Z,58.11
2023-03-27T10:11:11.948Z,58.80
2023-03-27T10:12:11.948Z,57.75
2023-03-27T10:13:11.917Z,58.03
2023-03-27T10:14:11.902Z,56.49
2023-03-27T10:15:11.890Z,57.75
2023-03-27T10:16:11.952Z,58.56
2023-03-27T10:17:11.866Z,58.28
2023-03-27T10:18:11.957Z,58.69
2023-03-27T10:19:11.859Z,58.92
2023-03-27T10:20:11.830Z,59.44
2023-03-27T10:21:11.845Z,59.57
2023-03-27T10:22:14.318Z,59.80
2023-03-27T10:23:11.818Z,59.77
2023-03-27T10:24:11.788Z,61.21
2023-03-27T10:25:11.786Z,60.85
2023-03-27T10:26:11.763Z,61.44
2023-03-27T10:27:11.766Z,61.92
2023-03-27T10:28:11.739Z,58.54
2023-03-27T10:29:11.726Z,56.69
2023-03-27T10:30:11.728Z,56.28
2023-03-27T10:31:11.731Z,56.05
2023-03-27T10:32:11.724Z,56.49
2023-03-27T10:33:11.742Z,56.41
2023-03-27T10:34:11.674Z,56.26
2023-03-27T10:35:11.666Z,57.70
2023-03-27T10:36:11.672Z,58.16
2023-03-27T10:37:11.635Z,58.64
2023-03-27T10:38:11.636Z,59.67
2023-03-27T10:39:11.681Z,60.64
2023-03-27T10:40:11.608Z,58.15
2023-03-27T10:41:11.606Z,56.30
2023-03-27T10:42:11.605Z,58.61
2023-03-27T10:43:12.631Z,58.07
2023-03-27T10:44:11.558Z,56.51
2023-03-27T10:45:11.548Z,55.38
2023-03-27T10:46:11.633Z,53.95
2023-03-27T10:47:11.521Z,54.16
2023-03-27T10:48:11.575Z,54.57
2023-03-27T10:49:11.506Z,56.28
2023-03-27T10:50:11.493Z,56.66
2023-03-27T10:51:11.472Z,55.77
2023-03-27T10:52:11.491Z,56.59
2023-03-27T10:53:11.740Z,54.25
2023-03-27T10:54:11.470Z,55.72
2023-03-27T10:55:11.434Z,56.26
2023-03-27T10:56:11.431Z,56.18
2023-03-27T10:57:11.492Z,56.20
2023-03-27T10:58:11.398Z,58.49
2023-03-27T10:59:11.413Z,59.95
2023-03-27T11:00:11.372Z,60.67
2023-03-27T11:01:11.425Z,65.35
2023-03-27T11:02:11.355Z,68.40
2023-03-27T11:03:11.379Z,71.78
2023-03-27T11:04:11.353Z,73.40
2023-03-27T11:05:11.339Z,74.71
2023-03-27T11:06:11.311Z,75.91
2023-03-27T11:07:11.297Z,76.87
2023-03-27T11:08:11.281Z,78.05
2023-03-27T11:09:11.265Z,79.12
2023-03-27T11:10:11.271Z,79.88
2023-03-27T11:11:11.257Z,80.43
2023-03-27T11:12:11.250Z,80.68
2023-03-27T11:13:11.241Z,81.71
2023-03-27T11:14:11.234Z,83.06
2023-03-27T11:15:11.215Z,83.62
2023-03-27T11:16:11.269Z,84.44
2023-03-27T11:17:11.182Z,85.38
2023-03-27T11:18:11.208Z,85.06
2023-03-27T11:19:11.162Z,85.69
2023-03-27T11:20:11.155Z,85.69
2023-03-27T11:21:11.169Z,85.86
2023-03-27T11:22:11.133Z,87.16
2023-03-27T11:23:11.115Z,87.54
2023-03-27T11:24:11.100Z,87.18
2023-03-27T11:25:11.093Z,87.35
2023-03-27T11:26:11.106Z,86.79
2023-03-27T11:27:13.312Z,87.27
2023-03-27T11:28:11.057Z,87.17
2023-03-27T11:29:11.069Z,87.27
2023-03-27T11:30:11.030Z,87.34
2023-03-27T11:31:13.133Z,86.57
2023-03-27T11:32:11.014Z,86.53
2023-03-27T11:33:11.010Z,86.76
2023-03-27T11:34:10.984Z,86.93
2023-03-27T11:35:10.977Z,85.89
2023-03-27T11:36:10.990Z,84.93
2023-03-27T11:37:10.959Z,84.48
2023-03-27T11:38:10.951Z,83.97
2023-03-27T11:39:10.935Z,83.51
2023-03-27T11:40:10.917Z,82.65
2023-03-27T11:41:11.942Z,80.29
2023-03-27T11:42:10.918Z,80.19
2023-03-27T11:43:10.896Z,79.74
2023-03-27T11:44:10.876Z,79.63
2023-03-27T11:45:10.880Z,78.98
2023-03-27T11:46:10.930Z,77.27
2023-03-27T11:47:10.862Z,78.16
2023-03-27T11:48:11.311Z,77.65
2023-03-27T11:49:10.832Z,76.51
2023-03-27T11:50:10.847Z,77.61
2023-03-27T11:51:10.792Z,77.71
2023-03-27T11:52:10.787Z,76.45
2023-03-27T11:53:10.801Z,75.73
2023-03-27T11:54:10.758Z,76.41
2023-03-27T11:55:10.749Z,76.92
2023-03-27T11:56:10.753Z,76.27
2023-03-27T11:57:10.769Z,75.45
2023-03-27T11:58:10.741Z,75.04
2023-03-27T11:59:10.772Z,73.61
2023-03-27T12:00:10.745Z,74.12
2023-03-27T12:01:10.708Z,74.84
2023-03-27T12:02:10.782Z,74.63
2023-03-27T12:03:10.727Z,74.84
2023-03-27T12:04:10.687Z,74.66
2023-03-27T12:05:10.694Z,74.05
2023-03-27T12:06:10.634Z,74.73
2023-03-27T12:08:10.619Z,74.32
2023-03-27T12:09:10.617Z,73.23
2023-03-27T12:10:11.023Z,73.57
2023-03-27T12:11:10.630Z,73.78
2023-03-27T12:12:10.556Z,72.44
2023-03-27T12:13:11.513Z,73.95
2023-03-27T12:14:17.511Z,74.94
2023-03-27T12:15:11.565Z,74.32
2023-03-27T12:16:10.608Z,72.78
2023-03-27T12:17:10.552Z,73.78
2023-03-27T12:18:10.574Z,73.57
2023-03-27T12:19:21.180Z,73.40
2023-03-27T12:20:11.492Z,70.90
2023-03-27T12:21:10.489Z,72.06
2023-03-27T12:22:21.091Z,73.50
2023-03-27T12:23:11.441Z,73.50
2023-03-27T12:24:10.440Z,73.23
2023-03-27T12:25:10.427Z,73.44
2023-03-27T12:26:10.412Z,72.17
2023-03-27T12:27:10.388Z,73.44
2023-03-27T12:28:22.462Z,74.88
2023-03-27T12:29:23.603Z,76.18
2023-03-27T12:30:11.399Z,77.97
2023-03-27T12:31:10.347Z,78.73
2023-03-27T12:32:10.361Z,80.83
2023-03-27T12:33:10.397Z,81.31
2023-03-27T12:34:10.314Z,83.68
2023-03-27T12:35:10.301Z,84.64
2023-03-27T12:36:10.468Z,84.94
2023-03-27T12:37:10.279Z,85.63
2023-03-27T12:38:10.261Z,85.89
2023-03-27T12:39:10.264Z,85.86
2023-03-27T12:40:10.251Z,85.61
2023-03-27T12:41:10.231Z,85.30
2023-03-27T12:42:10.218Z,84.75
2023-03-27T12:43:10.206Z,84.61
2023-03-27T12:44:10.218Z,84.50
2023-03-27T12:45:10.179Z,81.42
2023-03-27T12:46:10.202Z,81.11
2023-03-27T12:47:10.153Z,81.48
2023-03-27T12:48:10.270Z,81.21
2023-03-27T12:49:10.180Z,81.96
2023-03-27T12:50:10.133Z,81.34
2023-03-27T12:51:10.125Z,81.45
2023-03-27T12:52:10.110Z,78.16
2023-03-27T12:53:10.087Z,77.17
2023-03-27T12:54:10.109Z,78.27